Partly cloudy
Partly cloudy
Clear with few low clouds
Partly cloudy
Clear with few low clouds
Clear with few low clouds
Partly cloudy and few cirrus
Partly cloudy and few cirrus
Partly cloudy and cirrus
(°F)
64°
64°
63°
63°
63°
63°
62°
62°
62°
62°
63°
63°
64°
64°
66°
66°
69°
69°
(°F)
66°
65°
65°
64°
64°
64°
65°
67°
71°
ESE
S
SW
SSW
SSW
SSE
SE
S
SW
(mph)
3-9
3-10
4-7
4-7
4-7
4-7
4-7
4-7
4-6
(in)
0
0
0
0
0
0
0
0
0
(%)
0
0
0
0
0
0
0
0
0

Sun elevation

/ -18.5°
sun-icon
UV 8
06:38
21:47
First quarter moon (96°)
15:11
01:20

METAR for Hondarribia (LESO)

Time Conditions Temperature/
Dewpoint
Wind Visibility Weather Clouds Pressure Change Raw
VFR 66.2°F / 62.6°F 220º variable 190º to 250º 5kt 9700m - Clouds and Visibility OK 1013 - LESO 132130Z AUTO 22005KT 190V250 CAVOK 19/17 Q1013
VFR 68°F / 62.6°F 190º variable 160º to 230º 4kt 9700m - Clouds and Visibility OK 1013 - LESO 132100Z AUTO 19004KT 160V230 CAVOK 20/17 Q1013
VFR 69.8°F / 62.6°F 70º variable 010º to 160º 5kt 9700m - Clouds and Visibility OK 1012 - LESO 132030Z AUTO 07005KT 010V160 CAVOK 21/17 Q1012
VFR 69.8°F / 62.6°F 30º variable 340º to 060º 6kt 9700m - Few Clouds 2400ft 1013 - LESO 132000Z AUTO 03006KT 340V060 9999 FEW024 21/17 Q1013
VFR 69.8°F / 62.6°F 30º variable 340º to 070º 7kt 9700m - Few Clouds 2400ft 1012 - LESO 131930Z 03007KT 340V070 9999 FEW024 21/17 Q1012
VFR 71.6°F / 62.6°F 20º variable 300º to 070º 7kt 9700m - Few Clouds 2600ft 1012 - LESO 131900Z 02007KT 300V070 9999 FEW026 22/17 Q1012
VFR 71.6°F / 62.6°F 20º variable 340º to 050º 7kt 9700m - Few Clouds 2500ft 1012 - LESO 131830Z 02007KT 340V050 9999 FEW025 22/17 Q1012
VFR 71.6°F / 60.8°F 20º variable 330º to 060º 7kt 9700m - Few Clouds 2500ft 1012 - LESO 131800Z 02007KT 330V060 9999 FEW025 22/16 Q1012
VFR 71.6°F / 62.6°F 20º variable 320º to 060º 8kt 9700m - Few Clouds 2500ft 1012 - LESO 131730Z 02008KT 320V060 9999 FEW025 22/17 Q1012
VFR 71.6°F / 60.8°F 20º variable 340º to 060º 7kt 9700m - Clouds and Visibility OK 1012 - LESO 131700Z 02007KT 340V060 CAVOK 22/16 Q1012
VFR 71.6°F / 60.8°F 10º variable 320º to 060º 7kt 9700m - Clouds and Visibility OK 1012 - LESO 131630Z 01007KT 320V060 CAVOK 22/16 Q1012
VFR 71.6°F / 60.8°F 10º variable 330º to 060º 8kt 9700m - Clouds and Visibility OK 1013 - LESO 131600Z 01008KT 330V060 CAVOK 22/16 Q1013
VFR 71.6°F / 60.8°F 10º variable 300º to 060º 8kt 9700m - Clouds and Visibility OK 1013 - LESO 131530Z 01008KT 300V060 CAVOK 22/16 Q1013
VFR 71.6°F / 60.8°F 10º variable 310º to 050º 8kt 9700m - Few Clouds 4500ft 1013 - LESO 131500Z 01008KT 310V050 9999 FEW045 22/16 Q1013
VFR 75.2°F / 57.2°F 30º variable 340º to 060º 10kt 9700m - Few Clouds 4500ft 1013 - LESO 131430Z 03010KT 340V060 9999 FEW045 24/14 Q1013
VFR 73.4°F / 57.2°F 30º variable 340º to 060º 10kt 9700m - Few Clouds 4600ft 1013 - LESO 131400Z 03010KT 340V060 9999 FEW046 23/14 Q1013
VFR 73.4°F / 55.4°F 30º variable 330º to 060º 12kt 9700m - Few Clouds 4600ft 1013 - LESO 131330Z 03012KT 330V060 9999 FEW046 23/13 Q1013
VFR 73.4°F / 57.2°F 30º variable 330º to 060º 11kt 9700m - Few Clouds 4600ft 1013 - LESO 131300Z 03011KT 330V060 9999 FEW046 23/14 Q1013
VFR 75.2°F / 57.2°F 30º variable 350º to 060º 11kt 9700m - Few Clouds 4500ft 1014 - LESO 131230Z 03011KT 350V060 9999 FEW045 24/14 Q1014
VFR 73.4°F / 57.2°F 40º variable 350º to 110º 9kt Gust 21kt 9700m - Few Clouds 4000ft 1014 - LESO 131200Z 04009G21KT 350V110 9999 FEW040 23/14 Q1014
VFR 73.4°F / 51.8°F 60º variable 030º to 090º 8kt 9700m - Few Clouds 4000ft 1014 - LESO 131130Z 06008KT 030V090 9999 FEW040 23/11 Q1014
VFR 73.4°F / 55.4°F 50º variable 010º to 080º 9kt 9700m - Few Clouds 3500ft 1014 - LESO 131100Z 05009KT 010V080 9999 FEW035 23/13 Q1014
VFR 69.8°F / 53.6°F 30º variable 340º to 080º 9kt 9700m - Few Clouds 3000ft 1015 - LESO 131030Z 03009KT 340V080 9999 FEW030 21/12 Q1015
VFR 69.8°F / 53.6°F 30º variable 320º to 080º 7kt 9700m - Few Clouds 2500ft 1015 - LESO 131000Z 03007KT 320V080 9999 FEW025 21/12 Q1015

VFR

66.2°F / 62.6°F

[More]
Wind 220º variable 190º to 250º 5kt
Visibility 9700m
Weather -
Clouds Clouds and Visibility OK
Pressure 1013
Change -
Raw LESO 132130Z AUTO 22005KT 190V250 CAVOK 19/17 Q1013

VFR

68°F / 62.6°F

[More]
Wind 190º variable 160º to 230º 4kt
Visibility 9700m
Weather -
Clouds Clouds and Visibility OK
Pressure 1013
Change -
Raw LESO 132100Z AUTO 19004KT 160V230 CAVOK 20/17 Q1013

VFR

69.8°F / 62.6°F

[More]
Wind 70º variable 010º to 160º 5kt
Visibility 9700m
Weather -
Clouds Clouds and Visibility OK
Pressure 1012
Change -
Raw LESO 132030Z AUTO 07005KT 010V160 CAVOK 21/17 Q1012

VFR

69.8°F / 62.6°F

[More]
Wind 30º variable 340º to 060º 6kt
Visibility 9700m
Weather -
Clouds Few Clouds 2400ft
Pressure 1013
Change -
Raw LESO 132000Z AUTO 03006KT 340V060 9999 FEW024 21/17 Q1013

VFR

69.8°F / 62.6°F

[More]
Wind 30º variable 340º to 070º 7kt
Visibility 9700m
Weather -
Clouds Few Clouds 2400ft
Pressure 1012
Change -
Raw LESO 131930Z 03007KT 340V070 9999 FEW024 21/17 Q1012

VFR

71.6°F / 62.6°F

[More]
Wind 20º variable 300º to 070º 7kt
Visibility 9700m
Weather -
Clouds Few Clouds 2600ft
Pressure 1012
Change -
Raw LESO 131900Z 02007KT 300V070 9999 FEW026 22/17 Q1012

VFR

71.6°F / 62.6°F

[More]
Wind 20º variable 340º to 050º 7kt
Visibility 9700m
Weather -
Clouds Few Clouds 2500ft
Pressure 1012
Change -
Raw LESO 131830Z 02007KT 340V050 9999 FEW025 22/17 Q1012

VFR

71.6°F / 60.8°F

[More]
Wind 20º variable 330º to 060º 7kt
Visibility 9700m
Weather -
Clouds Few Clouds 2500ft
Pressure 1012
Change -
Raw LESO 131800Z 02007KT 330V060 9999 FEW025 22/16 Q1012

VFR

71.6°F / 62.6°F

[More]
Wind 20º variable 320º to 060º 8kt
Visibility 9700m
Weather -
Clouds Few Clouds 2500ft
Pressure 1012
Change -
Raw LESO 131730Z 02008KT 320V060 9999 FEW025 22/17 Q1012

VFR

71.6°F / 60.8°F

[More]
Wind 20º variable 340º to 060º 7kt
Visibility 9700m
Weather -
Clouds Clouds and Visibility OK
Pressure 1012
Change -
Raw LESO 131700Z 02007KT 340V060 CAVOK 22/16 Q1012

VFR

71.6°F / 60.8°F

[More]
Wind 10º variable 320º to 060º 7kt
Visibility 9700m
Weather -
Clouds Clouds and Visibility OK
Pressure 1012
Change -
Raw LESO 131630Z 01007KT 320V060 CAVOK 22/16 Q1012

VFR

71.6°F / 60.8°F

[More]
Wind 10º variable 330º to 060º 8kt
Visibility 9700m
Weather -
Clouds Clouds and Visibility OK
Pressure 1013
Change -
Raw LESO 131600Z 01008KT 330V060 CAVOK 22/16 Q1013

VFR

71.6°F / 60.8°F

[More]
Wind 10º variable 300º to 060º 8kt
Visibility 9700m
Weather -
Clouds Clouds and Visibility OK
Pressure 1013
Change -
Raw LESO 131530Z 01008KT 300V060 CAVOK 22/16 Q1013

VFR

71.6°F / 60.8°F

[More]
Wind 10º variable 310º to 050º 8kt
Visibility 9700m
Weather -
Clouds Few Clouds 4500ft
Pressure 1013
Change -
Raw LESO 131500Z 01008KT 310V050 9999 FEW045 22/16 Q1013

VFR

75.2°F / 57.2°F

[More]
Wind 30º variable 340º to 060º 10kt
Visibility 9700m
Weather -
Clouds Few Clouds 4500ft
Pressure 1013
Change -
Raw LESO 131430Z 03010KT 340V060 9999 FEW045 24/14 Q1013

VFR

73.4°F / 57.2°F

[More]
Wind 30º variable 340º to 060º 10kt
Visibility 9700m
Weather -
Clouds Few Clouds 4600ft
Pressure 1013
Change -
Raw LESO 131400Z 03010KT 340V060 9999 FEW046 23/14 Q1013

VFR

73.4°F / 55.4°F

[More]
Wind 30º variable 330º to 060º 12kt
Visibility 9700m
Weather -
Clouds Few Clouds 4600ft
Pressure 1013
Change -
Raw LESO 131330Z 03012KT 330V060 9999 FEW046 23/13 Q1013

VFR

73.4°F / 57.2°F

[More]
Wind 30º variable 330º to 060º 11kt
Visibility 9700m
Weather -
Clouds Few Clouds 4600ft
Pressure 1013
Change -
Raw LESO 131300Z 03011KT 330V060 9999 FEW046 23/14 Q1013

VFR

75.2°F / 57.2°F

[More]
Wind 30º variable 350º to 060º 11kt
Visibility 9700m
Weather -
Clouds Few Clouds 4500ft
Pressure 1014
Change -
Raw LESO 131230Z 03011KT 350V060 9999 FEW045 24/14 Q1014

VFR

73.4°F / 57.2°F

[More]
Wind 40º variable 350º to 110º 9kt Gust 21kt
Visibility 9700m
Weather -
Clouds Few Clouds 4000ft
Pressure 1014
Change -
Raw LESO 131200Z 04009G21KT 350V110 9999 FEW040 23/14 Q1014

VFR

73.4°F / 51.8°F

[More]
Wind 60º variable 030º to 090º 8kt
Visibility 9700m
Weather -
Clouds Few Clouds 4000ft
Pressure 1014
Change -
Raw LESO 131130Z 06008KT 030V090 9999 FEW040 23/11 Q1014

VFR

73.4°F / 55.4°F

[More]
Wind 50º variable 010º to 080º 9kt
Visibility 9700m
Weather -
Clouds Few Clouds 3500ft
Pressure 1014
Change -
Raw LESO 131100Z 05009KT 010V080 9999 FEW035 23/13 Q1014

VFR

69.8°F / 53.6°F

[More]
Wind 30º variable 340º to 080º 9kt
Visibility 9700m
Weather -
Clouds Few Clouds 3000ft
Pressure 1015
Change -
Raw LESO 131030Z 03009KT 340V080 9999 FEW030 21/12 Q1015

VFR

69.8°F / 53.6°F

[More]
Wind 30º variable 320º to 080º 7kt
Visibility 9700m
Weather -
Clouds Few Clouds 2500ft
Pressure 1015
Change -
Raw LESO 131000Z 03007KT 320V080 9999 FEW025 21/12 Q1015

TAF for Hondarribia (LESO)

From till


Maximum Temperature 26ºC on . Minimum Temperature 17ºC on .
From till Wind 3kt. Visibility 9700m. Nil Significant Cloud.
Temporarly from till Wind 30º 10kt.
Becoming from till
With 40% probability, Temporarly from till Wind 320º 10kt.

Raw: TAF LESO 131700Z 1318/1418 VRB03KT CAVOK TX26/1414Z TN17/1404Z TEMPO 1318/1319 03010KT BECMG 1408/1410 26010KT PROB40 TEMPO 1410/1412 32010KT

Radar and precipitation nowcast for Hondarribia

Drizzle
Light
Moderate
Heavy
Very Heavy
Hail

The location marker is placed on Hondarribia. This animation shows the precipitation radar for the selected time range, as well as a 2h forecast. Orange crosses indicate lightning. Data provided by nowcast.de (available in USA, Europe, Australia). Drizzle or light snow fall might be invisible for the radar. Precipitation intensity is colour coded, ranging from turquoise to red.

Current satellite and rain images for Hondarribia, Spain

The location marker is placed on Hondarribia. [More]

The real-time satellite image combines visible light during daytime with infrared radiation during nighttime. At night, the image is not dark as infrared radiation can detect temperature differences. Unfortunately, low clouds and fog are difficult to distinguish from ground temperatures and thus can be almost invisible during the night. Meteosat satellite images for Europe are updated in real-time every 5 minutes. GOES-16/GOES-17 (North & South America) and Himawari (Asia) images update every 10 minutes.

Precipitation is estimated from radar and satellites. Precipitation estimates from satellites are less accurate at night than during daytime.

© 2024 meteoblue, NOAA Satellites GOES-16 and EUMETSAT. Lightning data provided by nowcast.

Back to top
×
Hey there,
seems like you are using an ad blocker.

Advertising is essential to maintain our free website with unique detail and accuracy.

Please whitelist www.meteoblue.com on your ad blocker or consider buying one of our products:

Already have a subscription?
Then please login.